createdAt,value
2022-11-17T00:01:59.749Z,6.77
2022-11-17T00:04:29.669Z,5.43
2022-11-17T00:07:00.702Z,5.67
2022-11-17T00:09:30.623Z,6.33
2022-11-17T00:12:22.522Z,5.50
2022-11-17T00:14:49.859Z,5.72
2022-11-17T00:17:19.451Z,5.67
2022-11-17T00:20:06.891Z,5.33
2022-11-17T00:22:36.717Z,5.13
2022-11-17T00:25:06.637Z,5.07
2022-11-17T00:27:36.783Z,5.05
2022-11-17T00:30:07.789Z,6.37
2022-11-17T00:32:55.187Z,4.47
2022-11-17T00:35:25.045Z,5.70
2022-11-17T00:38:12.524Z,4.73
2022-11-17T00:40:42.350Z,4.97
2022-11-17T00:43:12.198Z,4.33
2022-11-17T00:45:42.032Z,4.50
2022-11-17T00:48:12.540Z,4.53
2022-11-17T00:50:42.353Z,4.67
2022-11-17T00:53:12.182Z,4.70
2022-11-17T00:55:43.550Z,3.57
2022-11-17T00:58:13.398Z,3.30
2022-11-17T01:00:43.228Z,4.23
2022-11-17T01:03:12.762Z,4.37
2022-11-17T01:05:42.575Z,4.30
2022-11-17T01:08:12.410Z,3.83
2022-11-17T01:10:42.270Z,4.20
2022-11-17T01:13:12.173Z,4.17
2022-11-17T01:15:42.047Z,3.70
2022-11-17T01:18:11.592Z,3.93
2022-11-17T01:20:41.390Z,4.53
2022-11-17T01:23:11.219Z,5.42
2022-11-17T01:25:41.036Z,4.93
2022-11-17T01:28:10.843Z,4.27
2022-11-17T01:30:40.671Z,4.43
2022-11-17T01:33:10.204Z,3.97
2022-11-17T01:35:40.027Z,4.60
2022-11-17T01:38:09.624Z,5.00
2022-11-17T01:40:39.734Z,4.37
2022-11-17T01:43:13.367Z,4.73
2022-11-17T01:45:43.705Z,4.03
2022-11-17T01:48:15.864Z,4.33
2022-11-17T01:50:49.413Z,5.00
2022-11-17T01:53:22.320Z,5.73
2022-11-17T01:56:00.805Z,4.70
2022-11-17T01:58:33.624Z,5.30
2022-11-17T02:01:03.899Z,5.10
2022-11-17T02:03:35.532Z,4.50
2022-11-17T02:06:18.004Z,4.60
2022-11-17T02:08:50.037Z,4.53
2022-11-17T02:11:22.345Z,4.53
2022-11-17T02:13:55.155Z,5.03
2022-11-17T02:16:24.693Z,5.03
2022-11-17T02:18:54.602Z,5.20
2022-11-17T02:21:58.861Z,5.33
2022-11-17T02:24:49.407Z,4.33
2022-11-17T02:27:38.188Z,4.70
2022-11-17T02:30:13.744Z,5.10
2022-11-17T02:33:01.696Z,5.87
2022-11-17T02:35:40.207Z,4.37
2022-11-17T02:38:18.637Z,4.57
2022-11-17T02:41:00.411Z,5.67
2022-11-17T02:46:20.781Z,4.67
2022-11-17T02:48:58.991Z,4.40
2022-11-17T02:51:29.844Z,6.27
2022-11-17T02:54:00.147Z,5.95
2022-11-17T02:56:29.717Z,5.73
2022-11-17T02:59:02.550Z,6.07
2022-11-17T03:01:52.695Z,5.83
2022-11-17T03:04:34.217Z,5.72
2022-11-17T03:07:15.912Z,5.28
2022-11-17T03:12:27.284Z,4.40
2022-11-17T03:15:20.795Z,5.77
2022-11-17T03:18:17.571Z,5.20
2022-11-17T03:21:11.061Z,6.10
2022-11-17T03:23:49.799Z,5.37
2022-11-17T03:26:25.200Z,6.60
2022-11-17T03:28:57.355Z,6.03
2022-11-17T03:31:28.783Z,5.97
2022-11-17T03:34:00.391Z,6.25
2022-11-17T03:39:08.826Z,6.03
2022-11-17T03:41:41.652Z,6.70
2022-11-17T03:44:12.941Z,6.54
2022-11-17T03:46:45.535Z,7.10
2022-11-17T03:49:20.988Z,6.70
2022-11-17T03:51:51.493Z,6.65
2022-11-17T03:54:21.335Z,5.87
2022-11-17T03:57:01.407Z,7.17
2022-11-17T03:59:43.304Z,6.62
2022-11-17T04:02:21.230Z,8.30
2022-11-17T04:05:06.146Z,6.10
2022-11-17T04:07:40.295Z,7.97
2022-11-17T04:10:18.161Z,8.37
2022-11-17T04:13:07.113Z,6.90
2022-11-17T04:15:54.428Z,8.03
2022-11-17T04:18:24.673Z,6.60
2022-11-17T04:20:57.032Z,6.90
2022-11-17T04:23:28.117Z,7.17
2022-11-17T04:26:16.495Z,6.97
2022-11-17T04:28:49.214Z,7.03
2022-11-17T04:31:28.126Z,6.37
2022-11-17T04:34:00.396Z,6.77
2022-11-17T04:36:35.717Z,6.37
2022-11-17T04:39:05.338Z,6.20
2022-11-17T04:41:54.659Z,7.83
2022-11-17T04:44:26.897Z,6.50
2022-11-17T04:46:57.575Z,6.73
2022-11-17T04:49:27.440Z,5.50
2022-11-17T04:51:57.375Z,7.13
2022-11-17T04:54:27.158Z,6.80
2022-11-17T04:56:57.288Z,6.50
2022-11-17T04:59:27.071Z,5.67
2022-11-17T05:02:01.069Z,5.60
2022-11-17T05:04:45.888Z,5.10
2022-11-17T05:07:15.660Z,5.30
2022-11-17T05:09:45.522Z,4.87
2022-11-17T05:12:33.225Z,6.42
2022-11-17T05:15:02.992Z,5.67
2022-11-17T05:17:33.060Z,5.58
2022-11-17T05:20:02.842Z,5.53
2022-11-17T05:22:49.881Z,5.13
2022-11-17T05:25:19.724Z,5.40
2022-11-17T05:27:49.507Z,6.13
2022-11-17T05:30:19.062Z,5.63
2022-11-17T05:32:48.826Z,5.77
2022-11-17T05:35:18.365Z,5.60
2022-11-17T05:37:48.139Z,5.53
2022-11-17T05:40:17.702Z,4.87
2022-11-17T05:42:47.463Z,5.43
2022-11-17T05:45:17.374Z,6.30
2022-11-17T05:47:47.141Z,5.83
2022-11-17T05:50:17.009Z,5.83
2022-11-17T05:52:46.946Z,6.43
2022-11-17T05:55:16.795Z,5.70
2022-11-17T05:57:47.099Z,5.07
2022-11-17T06:00:17.250Z,4.80
2022-11-17T06:02:50.065Z,5.70
2022-11-17T06:05:20.722Z,5.83
2022-11-17T06:07:51.070Z,5.20
2022-11-17T06:10:20.594Z,6.10
2022-11-17T06:12:50.362Z,4.97
2022-11-17T06:15:20.128Z,5.63
2022-11-17T06:17:54.184Z,6.28
2022-11-17T06:20:28.142Z,6.20
2022-11-17T06:23:00.800Z,5.63
2022-11-17T06:25:31.105Z,5.40
2022-11-17T06:28:04.062Z,6.75
2022-11-17T06:30:35.573Z,5.70
2022-11-17T06:33:09.015Z,5.42
2022-11-17T06:35:39.353Z,6.80
2022-11-17T06:38:08.910Z,5.00
2022-11-17T06:40:39.054Z,5.62
2022-11-17T06:43:09.613Z,6.10
2022-11-17T06:45:41.942Z,6.33
2022-11-17T06:48:13.628Z,5.40
2022-11-17T06:50:44.506Z,5.37
2022-11-17T06:53:14.380Z,6.10
2022-11-17T06:55:45.666Z,5.90
2022-11-17T06:58:15.178Z,6.27
2022-11-17T07:00:45.274Z,5.40
2022-11-17T07:03:14.980Z,4.83
2022-11-17T07:05:44.753Z,5.23
2022-11-17T07:08:14.542Z,5.07
2022-11-17T07:10:49.147Z,4.80
2022-11-17T07:13:15.543Z,5.03
2022-11-17T07:15:45.400Z,5.00
2022-11-17T07:18:15.060Z,5.53
2022-11-17T07:20:44.853Z,5.43
2022-11-17T07:23:15.299Z,5.80
2022-11-17T07:25:45.308Z,5.50
2022-11-17T07:28:14.988Z,5.30
2022-11-17T07:30:44.772Z,4.60
2022-11-17T07:33:14.387Z,4.70
2022-11-17T07:35:44.253Z,4.43
2022-11-17T07:38:14.082Z,4.53
2022-11-17T07:40:43.957Z,4.50
2022-11-17T07:43:13.498Z,3.97
2022-11-17T07:45:43.332Z,5.10
2022-11-17T07:48:12.873Z,4.20
2022-11-17T07:50:42.630Z,4.57
2022-11-17T07:53:13.927Z,4.20
2022-11-17T07:55:43.714Z,4.90
2022-11-17T07:58:13.260Z,3.57
2022-11-17T08:00:43.189Z,2.70
2022-11-17T08:03:13.095Z,4.70
2022-11-17T08:05:43.799Z,3.50
2022-11-17T08:08:14.137Z,4.83
2022-11-17T08:10:43.984Z,4.70
2022-11-17T08:13:15.390Z,4.40
2022-11-17T08:15:45.156Z,3.43
2022-11-17T08:18:14.772Z,4.13
2022-11-17T08:20:44.535Z,5.17
2022-11-17T08:23:14.219Z,3.60
2022-11-17T08:25:44.049Z,4.93
2022-11-17T08:28:13.588Z,4.17
2022-11-17T08:30:44.363Z,4.20
2022-11-17T08:33:14.169Z,3.92
2022-11-17T08:35:44.067Z,4.07
2022-11-17T08:38:15.320Z,3.37
2022-11-17T08:40:46.067Z,3.33
2022-11-17T08:43:15.891Z,4.60
2022-11-17T08:45:46.002Z,3.30
2022-11-17T08:48:15.487Z,3.10
2022-11-17T08:50:45.309Z,4.00
2022-11-17T08:53:17.267Z,2.90
2022-11-17T08:55:48.112Z,2.75
2022-11-17T08:58:18.234Z,3.57
2022-11-17T09:00:48.130Z,2.87
2022-11-17T09:03:17.934Z,2.72
2022-11-17T09:05:48.389Z,3.30
2022-11-17T09:08:48.140Z,3.12
2022-11-17T09:10:51.598Z,2.95
2022-11-17T09:13:21.375Z,3.07
2022-11-17T09:15:51.237Z,4.17
2022-11-17T09:18:20.728Z,4.50
2022-11-17T09:20:50.511Z,3.27
2022-11-17T09:23:20.072Z,2.87
2022-11-17T09:25:49.891Z,3.30
2022-11-17T09:28:19.385Z,3.37
2022-11-17T09:30:49.160Z,3.00
2022-11-17T09:33:19.419Z,3.12
2022-11-17T09:35:50.004Z,2.70
2022-11-17T09:38:19.759Z,3.27
2022-11-17T09:40:49.651Z,3.53
2022-11-17T09:43:30.835Z,3.83
2022-11-17T09:46:09.378Z,3.65
2022-11-17T09:48:50.947Z,3.57
2022-11-17T09:51:23.461Z,3.37
2022-11-17T09:53:59.673Z,4.37
2022-11-17T09:56:29.606Z,3.80
2022-11-17T09:59:04.335Z,3.47
2022-11-17T10:01:34.238Z,3.37
2022-11-17T10:04:04.409Z,2.87
2022-11-17T10:06:34.502Z,3.45
2022-11-17T10:09:31.150Z,3.63
2022-11-17T10:12:12.711Z,3.27
2022-11-17T10:14:43.085Z,3.30
2022-11-17T10:17:13.707Z,3.47
2022-11-17T10:19:45.413Z,3.27
2022-11-17T10:22:27.013Z,3.43
2022-11-17T10:24:58.583Z,2.57
2022-11-17T10:27:34.246Z,2.87
2022-11-17T10:30:18.685Z,2.80
2022-11-17T10:32:53.718Z,2.98
2022-11-17T10:35:30.713Z,2.63
2022-11-17T10:38:06.957Z,3.17
2022-11-17T10:40:42.978Z,3.53
2022-11-17T10:43:18.575Z,2.90
2022-11-17T10:45:51.576Z,2.73
2022-11-17T10:48:39.274Z,2.63
2022-11-17T10:51:20.788Z,2.90
2022-11-17T10:54:07.939Z,4.07
2022-11-17T10:56:49.652Z,2.80
2022-11-17T10:59:27.823Z,2.07
2022-11-17T11:01:57.674Z,2.93
2022-11-17T11:04:41.907Z,1.70
2022-11-17T11:07:17.193Z,2.70
2022-11-17T11:09:58.843Z,2.97
2022-11-17T11:12:54.114Z,2.47
2022-11-17T11:15:29.921Z,1.80
2022-11-17T11:18:00.081Z,2.45
2022-11-17T11:20:35.844Z,1.67
2022-11-17T11:23:12.102Z,1.92
2022-11-17T11:25:59.650Z,1.87
2022-11-17T11:28:45.756Z,2.07
2022-11-17T11:31:50.413Z,2.00
2022-11-17T11:34:25.876Z,2.07
2022-11-17T11:37:16.973Z,1.87
2022-11-17T11:42:30.992Z,1.80
2022-11-17T11:45:18.448Z,1.57
2022-11-17T11:47:54.033Z,1.57
2022-11-17T11:50:26.829Z,1.72
2022-11-17T11:52:59.648Z,1.87
2022-11-17T11:55:34.728Z,1.87
2022-11-17T11:58:16.527Z,1.47
2022-11-17T12:00:48.048Z,1.23
2022-11-17T12:03:32.621Z,1.77
2022-11-17T12:06:31.556Z,1.83
2022-11-17T12:09:22.200Z,1.80
2022-11-17T12:12:02.532Z,1.85
2022-11-17T12:14:35.251Z,1.83
2022-11-17T12:17:18.636Z,1.60
2022-11-17T12:19:57.448Z,1.37
2022-11-17T12:22:35.968Z,2.17
2022-11-17T12:25:21.883Z,1.32
2022-11-17T12:27:54.616Z,2.10
2022-11-17T12:30:33.622Z,2.20
2022-11-17T12:33:05.773Z,1.30
2022-11-17T12:35:40.143Z,1.65
2022-11-17T12:38:19.876Z,1.40
2022-11-17T12:40:54.651Z,1.83
2022-11-17T12:43:26.392Z,2.08
2022-11-17T12:46:01.814Z,1.93
2022-11-17T12:48:35.511Z,1.63
2022-11-17T12:51:26.097Z,1.92
2022-11-17T12:54:28.677Z,1.60
2022-11-17T12:57:13.692Z,2.03
2022-11-17T13:00:05.850Z,2.40
2022-11-17T13:02:50.689Z,1.33
2022-11-17T13:05:23.470Z,2.10
2022-11-17T13:08:12.425Z,2.53
2022-11-17T13:10:42.567Z,1.63
2022-11-17T13:13:21.542Z,2.90
2022-11-17T13:15:54.075Z,2.13
2022-11-17T13:18:42.528Z,2.80
2022-11-17T13:21:30.359Z,2.50
2022-11-17T13:24:01.166Z,1.80
2022-11-17T13:26:33.929Z,1.42
2022-11-17T13:29:09.075Z,2.00
2022-11-17T13:31:38.849Z,1.33
2022-11-17T13:34:21.387Z,1.77
2022-11-17T13:36:59.280Z,1.40
2022-11-17T13:39:29.696Z,2.33
2022-11-17T13:42:01.127Z,2.07
2022-11-17T13:44:32.546Z,2.13
2022-11-17T13:47:20.820Z,2.30
2022-11-17T13:49:50.934Z,1.83
2022-11-17T13:52:43.565Z,2.13
2022-11-17T13:55:12.835Z,2.17
2022-11-17T13:57:45.727Z,1.90
2022-11-17T14:00:18.814Z,2.47
2022-11-17T14:02:59.834Z,2.30
2022-11-17T14:05:32.898Z,2.57
2022-11-17T14:08:20.616Z,1.92
2022-11-17T14:10:50.838Z,2.20
2022-11-17T14:13:23.261Z,2.37
2022-11-17T14:15:59.361Z,2.43
2022-11-17T14:18:37.615Z,1.93
2022-11-17T14:21:18.878Z,2.23
2022-11-17T14:23:48.657Z,1.83
2022-11-17T14:26:25.906Z,2.53
2022-11-17T14:28:57.354Z,1.73
2022-11-17T14:31:27.121Z,1.85
2022-11-17T14:33:56.984Z,2.00
2022-11-17T14:36:27.185Z,2.27
2022-11-17T14:38:56.823Z,1.60
2022-11-17T14:41:26.617Z,2.57
2022-11-17T14:43:56.693Z,1.50
2022-11-17T14:46:27.914Z,2.17
2022-11-17T14:48:57.745Z,2.17
2022-11-17T14:51:27.993Z,2.57
2022-11-17T14:53:57.832Z,2.40
2022-11-17T14:56:27.704Z,2.43
2022-11-17T14:58:59.489Z,2.40
2022-11-17T15:01:32.104Z,2.63
2022-11-17T15:04:27.249Z,2.10
2022-11-17T15:06:35.767Z,3.43
2022-11-17T15:09:07.689Z,2.02
2022-11-17T15:11:39.491Z,2.93
2022-11-17T15:14:08.685Z,2.23
2022-11-17T15:16:38.456Z,3.07
2022-11-17T15:19:08.321Z,2.83
2022-11-17T15:21:38.073Z,3.23
2022-11-17T15:24:09.187Z,3.13
2022-11-17T15:26:39.019Z,3.60
2022-11-17T15:29:09.392Z,3.00
2022-11-17T15:31:39.474Z,3.50
2022-11-17T15:34:17.018Z,2.93
2022-11-17T15:36:42.058Z,3.57
2022-11-17T15:39:12.882Z,3.58
2022-11-17T15:41:43.163Z,2.53
2022-11-17T15:44:12.918Z,3.03
2022-11-17T15:46:47.336Z,3.60
2022-11-17T15:49:15.513Z,2.70
2022-11-17T15:51:45.794Z,2.37
2022-11-17T15:54:20.319Z,2.93
2022-11-17T15:56:46.895Z,2.30
2022-11-17T15:59:16.779Z,3.00
2022-11-17T16:01:46.942Z,2.55
2022-11-17T16:04:17.241Z,3.00
2022-11-17T16:06:47.562Z,2.47
2022-11-17T16:09:17.697Z,3.00
2022-11-17T16:11:48.008Z,3.30
2022-11-17T16:14:17.845Z,3.37
2022-11-17T16:16:47.968Z,2.53
2022-11-17T16:19:17.956Z,3.13
2022-11-17T16:21:47.803Z,2.50
2022-11-17T16:24:17.284Z,2.53
2022-11-17T16:26:47.604Z,2.73
2022-11-17T16:29:21.429Z,2.77
2022-11-17T16:31:51.354Z,3.43
2022-11-17T16:34:21.843Z,3.53
2022-11-17T16:36:51.681Z,3.15
2022-11-17T16:39:21.242Z,3.13
2022-11-17T16:41:51.299Z,3.23
2022-11-17T16:44:21.191Z,3.47
2022-11-17T16:46:50.991Z,3.40
2022-11-17T16:49:21.154Z,3.70
2022-11-17T16:51:53.739Z,3.30
2022-11-17T16:54:23.424Z,3.57
2022-11-17T16:56:53.192Z,2.43
2022-11-17T16:59:22.838Z,3.13
2022-11-17T17:01:53.045Z,3.50
2022-11-17T17:04:22.663Z,3.27
2022-11-17T17:06:52.697Z,3.50
2022-11-17T17:09:27.669Z,3.73
2022-11-17T17:11:54.310Z,3.70
2022-11-17T17:14:24.167Z,3.30
2022-11-17T17:16:53.981Z,4.20
2022-11-17T17:19:24.997Z,3.83
2022-11-17T17:21:54.799Z,3.75
2022-11-17T17:24:24.562Z,4.15
2022-11-17T17:26:54.360Z,3.63
2022-11-17T17:29:23.844Z,4.37
2022-11-17T17:31:53.648Z,4.17
2022-11-17T17:34:23.157Z,3.70
2022-11-17T17:36:52.958Z,3.83
2022-11-17T17:39:22.465Z,3.90
2022-11-17T17:41:52.273Z,3.93
2022-11-17T17:44:21.740Z,5.90
2022-11-17T17:46:51.536Z,4.70
2022-11-17T17:49:21.083Z,4.23
2022-11-17T17:51:50.882Z,3.80
2022-11-17T17:54:23.437Z,5.37
2022-11-17T17:56:53.229Z,4.63
2022-11-17T17:59:22.736Z,4.70
2022-11-17T18:01:53.295Z,5.67
2022-11-17T18:04:22.920Z,5.17
2022-11-17T18:06:52.853Z,5.10
2022-11-17T18:09:22.830Z,4.45
2022-11-17T18:11:52.650Z,3.90
2022-11-17T18:14:24.760Z,4.73
2022-11-17T18:16:55.811Z,3.65
2022-11-17T18:21:55.715Z,3.52
2022-11-17T18:24:25.628Z,3.90
2022-11-17T18:26:55.444Z,4.07
2022-11-17T18:29:25.364Z,3.50
2022-11-17T18:31:55.163Z,3.43
2022-11-17T18:34:26.566Z,3.73
2022-11-17T18:36:57.081Z,3.87
2022-11-17T18:39:29.355Z,3.85
2022-11-17T18:41:59.502Z,2.90
2022-11-17T18:44:30.784Z,4.10
2022-11-17T18:47:03.062Z,4.40
2022-11-17T18:49:34.164Z,3.93
2022-11-17T18:52:04.416Z,3.40
2022-11-17T18:54:34.366Z,5.20
2022-11-17T18:57:04.437Z,3.77
2022-11-17T18:59:34.292Z,3.63
2022-11-17T19:02:04.071Z,4.40
2022-11-17T19:04:34.153Z,3.10
2022-11-17T19:07:04.000Z,3.37
2022-11-17T19:09:33.797Z,3.33
2022-11-17T19:12:03.980Z,3.20
2022-11-17T19:14:33.867Z,4.07
2022-11-17T19:17:04.392Z,2.85
2022-11-17T19:19:34.444Z,2.77
2022-11-17T19:22:04.429Z,3.00
2022-11-17T19:24:34.542Z,3.67
2022-11-17T19:27:04.388Z,2.80
2022-11-17T19:29:34.829Z,2.83
2022-11-17T19:32:05.907Z,2.83
2022-11-17T19:34:35.541Z,3.80
2022-11-17T19:37:06.638Z,3.42
2022-11-17T19:39:36.446Z,2.80
2022-11-17T19:42:07.418Z,3.10
2022-11-17T19:44:37.143Z,2.87
2022-11-17T19:47:07.467Z,3.60
2022-11-17T19:49:37.237Z,1.97
2022-11-17T19:52:08.014Z,2.70
2022-11-17T19:54:37.799Z,3.25
2022-11-17T19:57:07.323Z,2.60
2022-11-17T19:59:37.094Z,3.80
2022-11-17T20:02:07.263Z,2.77
2022-11-17T20:04:37.338Z,3.65
2022-11-17T20:07:08.871Z,3.20
2022-11-17T20:09:38.756Z,3.13
2022-11-17T20:12:08.453Z,4.07
2022-11-17T20:14:38.301Z,4.37
2022-11-17T20:17:08.097Z,4.28
2022-11-17T20:19:37.926Z,3.37
2022-11-17T20:22:07.732Z,4.27
2022-11-17T20:24:37.590Z,4.33
2022-11-17T20:27:07.358Z,4.33
2022-11-17T20:29:37.276Z,3.80
2022-11-17T20:32:07.178Z,3.47
2022-11-17T20:34:37.049Z,4.07
2022-11-17T20:37:06.736Z,4.77
2022-11-17T20:39:36.537Z,3.70
2022-11-17T20:42:06.736Z,4.40
2022-11-17T20:44:36.535Z,4.13
2022-11-17T20:47:07.082Z,4.10
2022-11-17T20:49:37.236Z,4.58
2022-11-17T20:52:13.073Z,4.20
2022-11-17T20:54:38.560Z,4.23
2022-11-17T20:57:08.705Z,4.20
2022-11-17T20:59:38.620Z,4.37
2022-11-17T21:02:09.695Z,5.03
2022-11-17T21:04:39.622Z,4.13
2022-11-17T21:07:09.163Z,3.93
2022-11-17T21:09:39.155Z,4.13
2022-11-17T21:12:09.236Z,3.83
2022-11-17T21:14:39.009Z,4.57
2022-11-17T21:17:10.403Z,4.07
2022-11-17T21:19:40.266Z,4.97
2022-11-17T21:22:09.780Z,3.63
2022-11-17T21:24:39.590Z,3.77
2022-11-17T21:27:09.389Z,4.37
2022-11-17T21:29:39.254Z,5.17
2022-11-17T21:32:08.733Z,5.00
2022-11-17T21:34:38.534Z,5.03
2022-11-17T21:37:08.204Z,5.27
2022-11-17T21:39:37.997Z,4.63
2022-11-17T21:42:07.484Z,3.83
2022-11-17T21:44:37.555Z,4.35
2022-11-17T21:47:10.974Z,4.53
2022-11-17T21:49:40.827Z,4.90
2022-11-17T21:52:10.596Z,5.33
2022-11-17T21:54:40.371Z,4.07
2022-11-17T21:57:10.075Z,5.03
2022-11-17T21:59:39.898Z,4.13
2022-11-17T22:02:11.150Z,4.70
2022-11-17T22:04:40.926Z,4.65
2022-11-17T22:07:10.830Z,4.40
2022-11-17T22:09:40.627Z,4.63
2022-11-17T22:12:10.299Z,5.53
2022-11-17T22:14:40.091Z,5.97
2022-11-17T22:17:09.569Z,4.73
2022-11-17T22:19:39.364Z,4.80
2022-11-17T22:22:08.919Z,4.70
2022-11-17T22:24:39.895Z,5.03
2022-11-17T22:27:09.957Z,5.57
2022-11-17T22:29:39.735Z,4.80
2022-11-17T22:32:09.236Z,4.93
2022-11-17T22:34:39.021Z,5.13
2022-11-17T22:37:08.587Z,4.50
2022-11-17T22:39:38.368Z,4.87
2022-11-17T22:42:07.851Z,4.67
2022-11-17T22:44:37.645Z,4.13
2022-11-17T22:47:07.409Z,5.07
2022-11-17T22:49:37.214Z,4.77
2022-11-17T22:52:08.692Z,4.13
2022-11-17T22:54:38.560Z,4.43
2022-11-17T22:57:08.363Z,4.87
2022-11-17T22:59:38.159Z,4.13
2022-11-17T23:02:07.642Z,5.07
2022-11-17T23:04:37.436Z,4.60
2022-11-17T23:07:07.256Z,4.40
2022-11-17T23:09:37.160Z,4.13
2022-11-17T23:12:07.393Z,4.33
2022-11-17T23:14:37.454Z,3.77
2022-11-17T23:17:06.939Z,4.57
2022-11-17T23:19:36.805Z,4.03
2022-11-17T23:22:06.933Z,4.63
2022-11-17T23:24:36.722Z,3.80
2022-11-17T23:27:07.040Z,4.40
2022-11-17T23:29:36.805Z,3.97
2022-11-17T23:32:06.984Z,3.43
2022-11-17T23:34:36.791Z,3.90
2022-11-17T23:37:06.914Z,3.10
2022-11-17T23:39:36.715Z,3.80
2022-11-17T23:42:06.733Z,4.33
2022-11-17T23:44:36.814Z,4.00
2022-11-17T23:47:06.915Z,3.63
2022-11-17T23:49:36.708Z,3.23
2022-11-17T23:52:06.336Z,3.50
2022-11-17T23:54:36.106Z,4.97
2022-11-17T23:57:06.621Z,3.65
2022-11-17T23:59:36.415Z,4.57
